Time;durP1;ratioP1;P1;durP2;ratioP2;P2;SDS_P1;SDS_P2;PMS_P1;PMS_P2;Temp;Humidity;BMP_temperature;BMP_pressure;BME280_temperature;BME280_humidity;BME280_pressure;Samples;Min_cycle;Max_cycle;Signal;HPM_P1;HPM_P2
2024/03/26 00:00:12;;;;;;;1.60;1.50;;;;;;;20.74;37.73;100129.41;5127757;27;20034;-72
2024/03/26 00:02:39;;;;;;;2.08;1.70;;;;;;;20.77;37.77;100131.66;5125468;27;20118;-72
2024/03/26 00:05:06;;;;;;;1.98;1.75;;;;;;;20.68;37.88;100138.16;5125540;27;20126;-72
2024/03/26 00:07:33;;;;;;;2.25;1.75;;;;;;;20.63;38.15;100124.72;5127683;27;20059;-72
2024/03/26 00:09:58;;;;;;;2.03;1.50;;;;;;;20.69;37.85;100129.22;5108350;27;20116;-72
2024/03/26 00:12:25;;;;;;;2.38;2.03;;;;;;;20.70;37.80;100120.25;5130156;27;20511;-72
2024/03/26 00:14:51;;;;;;;1.70;1.45;;;;;;;20.67;37.91;100122.50;5122970;27;20095;-72
2024/03/26 00:17:16;;;;;;;2.53;1.65;;;;;;;20.67;37.91;100118.03;5105505;27;20043;-72
2024/03/26 00:19:42;;;;;;;2.47;2.10;;;;;;;20.66;37.81;100116.41;5122629;27;20050;-73
2024/03/26 00:22:07;;;;;;;2.30;1.60;;;;;;;20.66;37.82;100116.41;5123412;27;20031;-72
2024/03/26 00:24:33;;;;;;;1.85;1.52;;;;;;;20.62;37.68;100106.38;5124030;27;20694;-72
2024/03/26 00:26:59;;;;;;;3.00;2.13;;;;;;;20.62;38.00;100109.84;5109257;27;20068;-72
2024/03/26 00:29:24;;;;;;;2.50;1.35;;;;;;;20.62;37.91;100101.91;5126163;27;20051;-73
2024/03/26 00:31:50;;;;;;;2.55;1.80;;;;;;;20.64;37.91;100114.94;5117462;27;20092;-73
2024/03/26 00:34:15;;;;;;;2.10;1.60;;;;;;;20.61;37.93;100100.28;5122321;27;20096;-72
2024/03/26 00:36:41;;;;;;;1.83;1.67;;;;;;;20.59;37.72;100093.56;5122421;27;20032;-73
2024/03/26 00:39:07;;;;;;;1.75;1.65;;;;;;;20.60;37.75;100092.56;5124376;27;20022;-72
2024/03/26 00:41:34;;;;;;;3.97;2.05;;;;;;;20.56;37.90;100094.00;5127893;27;20669;-73
2024/03/26 00:43:59;;;;;;;1.88;1.40;;;;;;;20.58;37.81;100082.19;5120455;27;20039;-73
2024/03/26 00:46:25;;;;;;;2.22;1.63;;;;;;;20.46;37.83;100068.72;5110405;27;20142;-73
2024/03/26 00:48:52;;;;;;;1.65;1.55;;;;;;;20.55;37.72;100073.84;5122779;27;20042;-73
2024/03/26 00:51:17;;;;;;;2.38;2.17;;;;;;;20.54;37.79;100077.50;5118241;27;20493;-72
2024/03/26 00:53:43;;;;;;;1.75;1.45;;;;;;;20.50;37.75;100062.06;5128891;27;20050;-72
2024/03/26 00:56:08;;;;;;;2.10;1.50;;;;;;;20.51;37.70;100062.84;5123034;27;20039;-73
2024/03/26 00:58:34;;;;;;;3.28;2.22;;;;;;;20.47;37.75;100069.56;5122494;27;20038;-74
2024/03/26 01:01:05;;;;;;;1.83;1.70;;;;;;;20.54;37.76;100057.16;5123493;27;20405;-73
2024/03/26 01:03:33;;;;;;;3.13;1.80;;;;;;;20.42;37.95;100056.94;5125037;27;20035;-72
2024/03/26 01:05:59;;;;;;;2.22;1.63;;;;;;;20.43;37.93;100057.75;5110575;27;20031;-72
2024/03/26 01:08:24;;;;;;;3.20;1.60;;;;;;;20.43;38.07;100048.00;5105779;27;20054;-73
2024/03/26 01:10:50;;;;;;;3.05;1.70;;;;;;;20.43;37.83;100041.88;5123263;27;20035;-72
2024/03/26 01:13:16;;;;;;;1.83;1.55;;;;;;;20.42;37.90;100042.91;5128003;27;20035;-72
2024/03/26 01:15:42;;;;;;;3.30;1.77;;;;;;;20.44;37.88;100040.88;5123506;27;20525;-73
2024/03/26 01:18:09;;;;;;;1.90;1.65;;;;;;;20.44;37.65;100033.75;5123131;27;20045;-73
2024/03/26 01:20:35;;;;;;;1.73;1.50;;;;;;;20.45;37.61;100034.56;5124860;27;21179;-73
2024/03/26 01:23:01;;;;;;;1.90;1.70;;;;;;;20.43;37.63;100033.94;5129313;27;20328;-73
2024/03/26 01:25:26;;;;;;;1.70;1.50;;;;;;;20.40;37.90;100035.13;5120597;27;20069;-73
2024/03/26 01:27:53;;;;;;;2.65;1.90;;;;;;;20.36;37.89;100015.41;5126349;27;20459;-73
2024/03/26 01:30:20;;;;;;;2.22;1.75;;;;;;;20.20;38.22;100024.53;5129402;27;20044;-74
2024/03/26 01:32:45;;;;;;;3.10;2.30;;;;;;;20.32;37.86;100018.66;5124934;27;20077;-71
2024/03/26 01:35:11;;;;;;;1.70;1.60;;;;;;;20.40;37.75;100015.81;5122107;27;20055;-72
2024/03/26 01:37:37;;;;;;;2.40;1.83;;;;;;;20.37;37.78;100016.22;5086983;27;20129;-72
2024/03/26 01:40:03;;;;;;;3.83;1.80;;;;;;;20.38;37.78;100020.50;5099620;27;20040;-73
2024/03/26 01:42:28;;;;;;;1.58;1.45;;;;;;;20.32;37.67;100011.56;5083703;28;20051;-71
2024/03/26 01:44:54;;;;;;;3.15;1.88;;;;;;;20.31;37.94;100017.84;5084778;28;20040;-73
2024/03/26 01:47:20;;;;;;;2.63;1.73;;;;;;;20.31;37.86;100009.13;5086655;28;20709;-71
2024/03/26 01:49:46;;;;;;;2.88;1.77;;;;;;;20.31;37.82;100006.47;5090575;28;20072;-73
2024/03/26 01:52:12;;;;;;;1.92;1.70;;;;;;;20.32;37.78;100005.44;5089196;28;20099;-73
2024/03/26 01:54:40;;;;;;;3.10;1.92;;;;;;;20.27;37.95;100011.31;5086180;28;20067;-72
2024/03/26 01:57:06;;;;;;;2.85;1.70;;;;;;;20.19;38.02;100003.59;5090004;28;20040;-73
2024/03/26 01:59:32;;;;;;;2.90;1.90;;;;;;;20.28;37.86;99998.91;5086858;28;20047;-72
2024/03/26 02:01:58;;;;;;;2.35;1.50;;;;;;;20.27;37.81;99994.66;5080833;28;20448;-72
2024/03/26 02:04:23;;;;;;;2.88;1.77;;;;;;;20.12;37.89;99969.25;5081261;28;20125;-71
2024/03/26 02:06:49;;;;;;;2.20;1.80;;;;;;;20.27;37.96;99992.00;5084095;28;20044;-72
2024/03/26 02:09:14;;;;;;;2.50;1.77;;;;;;;20.26;37.86;99985.91;5087484;28;20934;-72
2024/03/26 02:11:40;;;;;;;4.43;2.17;;;;;;;20.29;37.94;99987.31;5083297;28;20039;-72
2024/03/26 02:14:06;;;;;;;2.58;1.92;;;;;;;20.30;37.83;99983.69;5090292;28;20054;-73
2024/03/26 02:16:31;;;;;;;3.45;1.80;;;;;;;20.27;37.78;99971.66;5082336;28;20035;-71
2024/03/26 02:18:57;;;;;;;2.15;1.60;;;;;;;20.32;37.71;99976.38;5089477;28;20474;-73
2024/03/26 02:21:22;;;;;;;2.15;1.58;;;;;;;20.26;37.76;99972.69;5082720;28;20046;-73
2024/03/26 02:23:49;;;;;;;2.08;1.55;;;;;;;20.26;37.83;99972.69;5094655;28;20048;-73
2024/03/26 02:26:20;;;;;;;3.17;1.80;;;;;;;20.29;37.66;99968.81;5095293;28;20361;-72
2024/03/26 02:28:46;;;;;;;3.10;2.00;;;;;;;20.41;37.49;99965.41;5081499;28;20838;-72
2024/03/26 02:31:11;;;;;;;4.05;2.30;;;;;;;20.44;37.59;99964.19;5087985;28;20044;-72
2024/03/26 02:33:37;;;;;;;2.85;1.70;;;;;;;20.49;37.43;99954.63;5096995;28;20040;-73
2024/03/26 02:36:02;;;;;;;2.53;1.77;;;;;;;20.56;37.40;99959.91;5091582;28;20040;-72
2024/03/26 02:38:28;;;;;;;2.33;1.67;;;;;;;20.47;37.49;99946.09;5079898;28;20048;-73
2024/03/26 02:40:53;;;;;;;1.73;1.48;;;;;;;20.49;37.55;99949.34;5111392;27;20069;-72
2024/03/26 02:43:20;;;;;;;1.77;1.67;;;;;;;20.44;37.40;99949.13;5103582;27;20101;-73
2024/03/26 02:45:46;;;;;;;3.17;1.85;;;;;;;20.42;37.51;99951.16;5101180;27;20114;-72
2024/03/26 02:48:11;;;;;;;2.35;1.88;;;;;;;20.46;37.45;99948.91;5111307;27;20504;-72
2024/03/26 02:50:37;;;;;;;3.03;1.80;;;;;;;20.41;37.54;99938.97;5106190;27;20048;-72
2024/03/26 02:53:02;;;;;;;2.38;1.70;;;;;;;20.40;37.63;99939.13;5108378;27;20046;-72
2024/03/26 02:55:28;;;;;;;2.35;1.75;;;;;;;20.38;37.62;99920.84;5110859;27;20043;-71
2024/03/26 02:57:54;;;;;;;2.53;2.05;;;;;;;20.41;37.54;99927.56;5109209;27;20039;-71
2024/03/26 03:00:19;;;;;;;3.60;1.92;;;;;;;20.34;37.75;99924.91;5108916;27;20051;-71
2024/03/26 03:02:45;;;;;;;2.60;2.40;;;;;;;20.28;37.86;99917.78;5107902;27;20043;-71
2024/03/26 03:05:10;;;;;;;2.28;1.80;;;;;;;20.29;37.67;99918.59;5102355;27;20047;-71
2024/03/26 03:07:36;;;;;;;2.80;1.70;;;;;;;20.33;37.62;99909.25;5106446;27;20371;-72
2024/03/26 03:10:03;;;;;;;2.08;1.85;;;;;;;20.31;37.51;99911.28;5100231;27;20066;-72
2024/03/26 03:12:29;;;;;;;2.88;1.80;;;;;;;20.29;37.73;99913.31;5104513;27;20372;-71
2024/03/26 03:14:54;;;;;;;2.33;1.65;;;;;;;20.27;37.61;99910.06;5103703;27;20042;-71
2024/03/26 03:17:20;;;;;;;2.60;1.88;;;;;;;20.33;37.70;99915.34;5108153;27;20044;-71
2024/03/26 03:19:45;;;;;;;1.98;1.75;;;;;;;20.25;37.79;99904.97;5101478;27;20052;-72
2024/03/26 03:22:11;;;;;;;2.30;1.80;;;;;;;20.28;37.70;99903.75;5106988;27;20051;-71
2024/03/26 03:24:36;;;;;;;1.80;1.60;;;;;;;20.31;37.47;99898.88;5107849;27;20035;-71
2024/03/26 03:27:02;;;;;;;3.40;1.90;;;;;;;20.23;37.50;99889.31;5103579;27;20058;-71
2024/03/26 03:29:27;;;;;;;1.73;1.63;;;;;;;20.25;37.54;99889.09;5105935;27;20043;-72
2024/03/26 03:31:53;;;;;;;2.08;1.80;;;;;;;20.20;37.65;99886.28;5100890;27;20035;-71
2024/03/26 03:34:18;;;;;;;1.80;1.70;;;;;;;20.18;37.70;99881.19;5106035;27;20467;-72
2024/03/26 03:36:44;;;;;;;2.38;1.98;;;;;;;20.17;37.63;99876.13;5108716;27;20070;-72
2024/03/26 03:39:09;;;;;;;2.10;1.88;;;;;;;20.18;37.55;99878.56;5102136;27;20036;-72
2024/03/26 03:41:35;;;;;;;2.47;1.90;;;;;;;20.19;37.50;99874.06;5122142;27;20040;-72
2024/03/26 03:44:00;;;;;;;2.35;1.70;;;;;;;20.15;37.56;99862.28;5127397;27;20045;-72
2024/03/26 03:46:26;;;;;;;3.08;1.70;;;;;;;20.18;37.54;99853.94;5121740;27;20100;-71
2024/03/26 03:48:51;;;;;;;2.63;1.52;;;;;;;20.19;37.39;99853.75;5122535;27;20031;-72
2024/03/26 03:51:17;;;;;;;2.60;1.90;;;;;;;20.16;37.43;99843.59;5129368;27;20160;-72
2024/03/26 03:53:42;;;;;;;1.90;1.70;;;;;;;20.16;37.48;99845.41;5123553;27;20042;-72
2024/03/26 03:56:08;;;;;;;2.15;1.80;;;;;;;20.13;37.72;99846.66;5123838;27;20058;-72
2024/03/26 03:58:34;;;;;;;2.40;1.75;;;;;;;20.16;37.51;99842.78;5113432;27;20042;-72
2024/03/26 04:01:00;;;;;;;2.20;2.00;;;;;;;20.13;37.36;99838.72;5123577;27;20054;-72
2024/03/26 04:03:25;;;;;;;4.13;2.05;;;;;;;20.14;37.53;99839.53;5124593;27;20039;-72
2024/03/26 04:05:51;;;;;;;3.78;2.05;;;;;;;20.11;37.55;99838.09;5103449;27;20112;-71
2024/03/26 04:08:17;;;;;;;2.00;1.80;;;;;;;20.15;37.45;99830.56;5124945;27;20031;-72
2024/03/26 04:10:44;;;;;;;1.95;1.75;;;;;;;20.20;37.33;99828.13;5106669;27;20087;-71
2024/03/26 04:13:09;;;;;;;3.00;1.77;;;;;;;20.31;37.10;99827.50;5126617;27;20058;-72
2024/03/26 04:15:41;;;;;;;2.30;1.80;;;;;;;20.37;37.10;99826.66;5119992;27;20030;-72
2024/03/26 04:18:07;;;;;;;2.45;1.90;;;;;;;20.40;37.22;99826.25;5122961;27;20655;-73
2024/03/26 04:20:33;;;;;;;2.00;1.60;;;;;;;20.26;37.39;99816.72;5122573;27;20027;-71
2024/03/26 04:22:58;;;;;;;2.95;1.85;;;;;;;20.30;37.28;99819.78;5120358;27;20121;-72
2024/03/26 04:25:24;;;;;;;2.22;1.73;;;;;;;20.26;37.31;99811.41;5126556;27;20161;-72
2024/03/26 04:27:49;;;;;;;2.45;1.75;;;;;;;20.16;37.19;99806.56;5129024;27;20023;-72
2024/03/26 04:30:15;;;;;;;1.92;1.75;;;;;;;20.26;37.41;99802.69;5094794;27;20043;-72
2024/03/26 04:32:40;;;;;;;3.17;2.10;;;;;;;20.22;37.44;99799.66;5123466;27;20058;-72
2024/03/26 04:35:06;;;;;;;2.15;1.80;;;;;;;20.21;37.45;99792.75;5122800;27;20039;-72
2024/03/26 04:37:32;;;;;;;2.72;1.65;;;;;;;20.24;37.37;99784.38;5125254;27;20058;-72
2024/03/26 04:39:57;;;;;;;2.38;1.80;;;;;;;20.24;37.47;99792.31;5124089;27;20054;-72
2024/03/26 04:42:23;;;;;;;2.80;1.98;;;;;;;20.25;37.37;99785.19;5128385;27;20101;-72
2024/03/26 04:44:48;;;;;;;2.78;1.95;;;;;;;20.22;37.33;99781.94;5109149;27;20786;-72
2024/03/26 04:47:14;;;;;;;1.83;1.70;;;;;;;20.23;37.22;99780.13;5122077;27;20042;-71
2024/03/26 04:49:40;;;;;;;2.20;1.80;;;;;;;20.16;37.35;99772.22;5116998;27;20063;-72
2024/03/26 04:52:06;;;;;;;2.50;1.90;;;;;;;20.12;37.37;99768.38;5116883;27;20047;-71
2024/03/26 04:54:31;;;;;;;2.33;1.80;;;;;;;20.07;37.44;99759.41;5122121;27;20093;-70
2024/03/26 04:56:57;;;;;;;1.92;1.67;;;;;;;20.11;37.51;99752.72;5121742;27;20129;-72
2024/03/26 04:59:22;;;;;;;1.90;1.55;;;;;;;20.10;37.50;99751.06;5122082;27;20126;-71
2024/03/26 05:01:48;;;;;;;2.13;1.83;;;;;;;20.09;37.46;99757.38;5123765;27;20051;-73
2024/03/26 05:04:14;;;;;;;2.05;1.80;;;;;;;20.04;37.34;99749.25;5124559;27;20669;-72
2024/03/26 05:06:39;;;;;;;3.15;1.95;;;;;;;20.09;37.52;99747.63;5125839;27;20526;-72
2024/03/26 05:09:05;;;;;;;2.35;1.90;;;;;;;20.09;37.45;99749.44;5119800;27;20050;-72
2024/03/26 05:11:30;;;;;;;2.35;1.70;;;;;;;20.12;37.38;99749.88;5124095;27;20470;-71
2024/03/26 05:13:57;;;;;;;2.17;1.60;;;;;;;20.09;37.18;99744.97;5124427;27;20035;-72
2024/03/26 05:16:23;;;;;;;3.35;1.90;;;;;;;20.07;37.38;99751.50;5128436;27;20054;-73
2024/03/26 05:18:48;;;;;;;2.22;1.70;;;;;;;20.07;37.33;99744.38;5124874;27;20474;-72
2024/03/26 05:21:15;;;;;;;2.03;1.85;;;;;;;20.07;37.38;99743.56;5127979;27;20100;-72
2024/03/26 05:23:42;;;;;;;3.20;1.90;;;;;;;20.07;37.37;99739.09;5133367;27;20191;-71
2024/03/26 05:26:08;;;;;;;3.50;2.00;;;;;;;20.04;37.27;99734.22;5129549;27;20157;-73
2024/03/26 05:28:33;;;;;;;2.17;1.80;;;;;;;20.10;37.22;99745.78;5122638;27;20109;-71
2024/03/26 05:31:18;;;;;;;2.10;1.80;;;;;;;20.16;37.05;99729.13;5127941;27;20039;-72
2024/03/26 05:33:45;;;;;;;2.63;2.00;;;;;;;20.49;36.52;99732.47;5133554;27;20054;-72
2024/03/26 05:36:12;;;;;;;2.45;2.00;;;;;;;20.79;36.17;99722.13;5127896;27;20026;-72
2024/03/26 05:38:37;;;;;;;2.30;1.85;;;;;;;21.30;35.44;99723.88;5121063;27;20039;-73
2024/03/26 05:41:03;;;;;;;3.03;1.92;;;;;;;21.40;35.42;99718.09;5127041;27;20085;-72
2024/03/26 05:43:28;;;;;;;2.65;1.75;;;;;;;21.28;35.73;99717.97;5133891;27;20038;-72
2024/03/26 05:45:54;;;;;;;2.03;1.75;;;;;;;21.22;35.70;99718.00;5134327;27;20397;-72
2024/03/26 05:48:20;;;;;;;2.58;2.05;;;;;;;21.12;36.07;99711.34;5129543;27;20047;-72
2024/03/26 05:50:45;;;;;;;1.95;1.75;;;;;;;21.08;36.13;99707.50;5124805;27;20030;-72
2024/03/26 05:53:11;;;;;;;2.03;1.70;;;;;;;21.07;36.12;99711.19;5131450;27;20515;-72
2024/03/26 05:55:36;;;;;;;3.22;2.00;;;;;;;21.06;36.38;99712.22;5123405;27;20054;-73
2024/03/26 05:58:03;;;;;;;2.85;1.80;;;;;;;21.01;36.52;99705.94;5112335;27;20059;-72
2024/03/26 06:00:28;;;;;;;1.75;1.50;;;;;;;20.99;36.34;99706.13;5130925;27;20069;-72
2024/03/26 06:02:55;;;;;;;4.00;1.80;;;;;;;20.97;36.47;99710.03;5141192;27;20042;-73
2024/03/26 06:05:20;;;;;;;2.30;2.10;;;;;;;20.91;36.57;99697.66;5125507;27;20035;-72
2024/03/26 06:07:46;;;;;;;3.15;2.00;;;;;;;20.85;36.78;99688.75;5126798;27;20046;-72
2024/03/26 06:10:11;;;;;;;2.55;1.73;;;;;;;20.79;37.04;99690.38;5126117;27;20053;-71
2024/03/26 06:12:40;;;;;;;2.33;1.95;;;;;;;20.80;37.01;99699.94;5135084;27;20059;-71
2024/03/26 06:15:06;;;;;;;1.85;1.70;;;;;;;20.76;37.00;99700.59;5133890;27;20042;-72
2024/03/26 06:17:32;;;;;;;3.92;1.98;;;;;;;20.72;36.85;99689.63;5132372;27;20591;-73
2024/03/26 06:19:57;;;;;;;2.08;1.60;;;;;;;20.71;36.90;99698.59;5129143;27;20039;-73
2024/03/26 06:22:23;;;;;;;2.75;1.92;;;;;;;20.72;37.18;99696.75;5136835;27;20413;-73
2024/03/26 06:24:48;;;;;;;2.40;1.92;;;;;;;20.71;36.96;99695.13;5130133;27;20039;-72
2024/03/26 06:27:14;;;;;;;2.50;1.80;;;;;;;20.69;36.95;99694.53;5125503;27;20058;-73
2024/03/26 06:29:39;;;;;;;2.13;1.80;;;;;;;20.70;37.02;99690.88;5132468;27;20057;-73
2024/03/26 06:32:05;;;;;;;2.92;1.90;;;;;;;20.68;36.90;99690.28;5122242;27;20043;-72
2024/03/26 06:34:30;;;;;;;1.92;1.70;;;;;;;20.64;37.07;99689.06;5131169;27;20054;-72
2024/03/26 06:36:56;;;;;;;2.50;1.80;;;;;;;20.65;37.25;99688.06;5126232;27;20034;-72
2024/03/26 06:39:21;;;;;;;2.38;2.05;;;;;;;20.61;37.04;99676.25;5123400;27;20503;-72
2024/03/26 06:41:47;;;;;;;2.13;1.92;;;;;;;20.60;37.22;99672.81;5133334;27;20558;-72
2024/03/26 06:44:12;;;;;;;2.40;2.03;;;;;;;20.49;37.36;99650.50;5123994;27;20556;-73
2024/03/26 06:46:41;;;;;;;3.17;1.83;;;;;;;20.57;36.99;99673.22;5125406;27;20080;-72
2024/03/26 06:49:06;;;;;;;2.42;1.73;;;;;;;20.57;37.12;99662.66;5131915;27;20592;-71
2024/03/26 06:51:32;;;;;;;2.75;1.90;;;;;;;20.54;37.16;99659.63;5126447;27;20087;-73
2024/03/26 06:53:57;;;;;;;1.90;1.70;;;;;;;20.56;37.33;99657.56;5126679;27;20027;-72
2024/03/26 06:56:24;;;;;;;2.72;1.85;;;;;;;20.55;37.08;99656.78;5111851;27;20059;-72
2024/03/26 06:58:50;;;;;;;2.30;1.70;;;;;;;20.57;37.17;99656.56;5100828;27;20046;-73
2024/03/26 07:01:16;;;;;;;1.80;1.65;;;;;;;20.52;37.17;99649.25;5124666;27;20428;-72
2024/03/26 07:03:41;;;;;;;2.10;1.90;;;;;;;20.43;37.20;99632.81;5124741;27;20084;-72
2024/03/26 07:06:09;;;;;;;2.22;2.03;;;;;;;20.41;37.37;99634.88;5108662;27;20462;-73
2024/03/26 07:08:35;;;;;;;3.17;2.10;;;;;;;20.50;37.13;99641.53;5123584;27;20114;-73
2024/03/26 07:11:03;;;;;;;2.33;1.65;;;;;;;20.45;37.18;99645.81;5126730;27;20113;-73
2024/03/26 07:13:28;;;;;;;2.05;1.60;;;;;;;20.45;37.45;99638.72;5123298;27;20035;-73
2024/03/26 07:15:54;;;;;;;2.17;1.98;;;;;;;20.43;37.25;99635.47;5123652;27;20066;-73
2024/03/26 07:18:20;;;;;;;1.90;1.75;;;;;;;20.50;37.22;99640.75;5129647;27;20710;-72
2024/03/26 07:20:46;;;;;;;2.40;1.70;;;;;;;20.48;37.09;99634.84;5126512;27;20040;-73
2024/03/26 07:23:12;;;;;;;2.00;1.75;;;;;;;20.44;37.26;99626.50;5124816;27;20037;-73
2024/03/26 07:25:38;;;;;;;2.63;1.70;;;;;;;20.52;37.28;99628.91;5119403;27;20061;-73
2024/03/26 07:28:04;;;;;;;1.80;1.70;;;;;;;20.44;37.42;99625.69;5130791;27;20039;-72
2024/03/26 07:30:29;;;;;;;3.58;1.70;;;;;;;20.41;37.13;99626.94;5121430;27;20043;-72
2024/03/26 07:32:55;;;;;;;1.77;1.52;;;;;;;20.40;37.46;99620.00;5125539;27;20034;-72
2024/03/26 07:35:22;;;;;;;2.72;1.80;;;;;;;20.44;37.40;99617.75;5125115;27;20044;-72
2024/03/26 07:37:48;;;;;;;4.10;1.77;;;;;;;20.45;37.03;99616.75;5120634;27;20483;-72
2024/03/26 07:40:15;;;;;;;4.28;2.15;;;;;;;20.60;37.07;99614.63;5116719;27;20730;-74
2024/03/26 07:42:41;;;;;;;2.67;1.90;;;;;;;21.04;36.62;99612.88;5117796;27;20035;-73
2024/03/26 07:45:08;;;;;;;1.80;1.70;;;;;;;21.46;35.64;99599.88;5120734;27;20066;-74
2024/03/26 07:47:37;;;;;;;2.60;1.58;;;;;;;21.79;35.60;99586.28;5118535;27;20036;-74
2024/03/26 07:50:03;;;;;;;3.37;2.27;;;;;;;21.80;35.37;99586.03;5125307;27;20148;-74
2024/03/26 07:52:29;;;;;;;2.05;1.83;;;;;;;21.76;35.30;99598.13;5108086;27;20576;-74
2024/03/26 07:54:55;;;;;;;1.98;1.70;;;;;;;21.71;35.64;99585.53;5119505;27;20096;-72
2024/03/26 07:57:21;;;;;;;2.08;1.80;;;;;;;21.72;35.71;99594.28;5104990;27;20130;-73
2024/03/26 07:59:47;;;;;;;2.70;1.90;;;;;;;21.65;35.99;99588.25;5122567;27;20027;-73
2024/03/26 08:02:12;;;;;;;2.88;1.75;;;;;;;21.62;35.97;99599.31;5126498;27;20091;-73
2024/03/26 08:04:38;;;;;;;2.30;1.65;;;;;;;21.58;35.95;99593.63;5122182;27;20120;-73
2024/03/26 08:07:04;;;;;;;2.92;1.85;;;;;;;21.55;36.10;99588.78;5122810;27;20090;-73
2024/03/26 08:09:33;;;;;;;2.40;1.80;;;;;;;21.44;36.02;99578.91;5121733;27;20042;-73
2024/03/26 08:11:58;;;;;;;2.58;1.73;;;;;;;21.45;36.41;99582.38;5118346;27;20057;-74
2024/03/26 08:14:24;;;;;;;3.63;2.22;;;;;;;21.38;36.58;99580.63;5124744;27;20073;-74
2024/03/26 08:16:53;;;;;;;2.47;2.03;;;;;;;21.35;36.40;99580.22;5117809;27;20424;-73
2024/03/26 08:19:18;;;;;;;5.72;1.63;;;;;;;21.28;36.90;99580.28;5118366;27;20039;-76
2024/03/26 08:21:44;;;;;;;2.25;1.92;;;;;;;21.29;36.83;99578.47;5117653;27;20050;-75
2024/03/26 08:24:09;;;;;;;2.17;1.80;;;;;;;21.27;36.97;99567.28;5120155;27;20129;-74
2024/03/26 08:26:35;;;;;;;2.08;1.70;;;;;;;21.25;36.74;99558.75;5121312;27;20733;-74
2024/03/26 08:29:00;;;;;;;2.53;1.90;;;;;;;21.16;36.82;99536.19;5118923;27;20125;-74
2024/03/26 08:31:26;;;;;;;2.50;1.90;;;;;;;21.26;36.60;99561.19;5125004;27;20187;-74
2024/03/26 08:33:51;;;;;;;2.00;1.80;;;;;;;21.16;37.11;99537.00;5112270;27;20051;-74
2024/03/26 08:36:17;;;;;;;3.35;1.58;;;;;;;21.29;36.68;99550.13;5117694;27;20020;-73
2024/03/26 08:38:43;;;;;;;2.00;1.75;;;;;;;21.25;37.10;99543.66;5120954;27;20050;-74
2024/03/26 08:41:08;;;;;;;2.20;1.80;;;;;;;21.26;36.74;99541.84;5101271;27;20047;-74
2024/03/26 08:43:34;;;;;;;1.80;1.65;;;;;;;21.27;36.76;99543.44;5122641;27;20046;-74
2024/03/26 08:46:01;;;;;;;3.08;1.90;;;;;;;21.19;36.85;99525.19;5116805;27;20034;-73
2024/03/26 08:48:26;;;;;;;4.57;2.05;;;;;;;21.22;36.76;99541.44;5101444;27;20049;-73
2024/03/26 08:50:52;;;;;;;2.60;1.77;;;;;;;21.18;37.16;99536.78;5118537;27;20039;-72
2024/03/26 08:53:17;;;;;;;3.13;1.90;;;;;;;21.25;37.00;99521.69;5125220;27;20118;-73
2024/03/26 08:55:43;;;;;;;2.08;1.90;;;;;;;21.24;36.79;99512.09;5123027;27;20042;-73
2024/03/26 08:58:10;;;;;;;2.33;1.80;;;;;;;21.24;36.84;99517.38;5117759;27;20035;-73
2024/03/26 09:00:36;;;;;;;1.88;1.65;;;;;;;21.19;37.09;99518.06;5121075;27;20039;-74
2024/03/26 09:03:01;;;;;;;2.00;1.70;;;;;;;21.12;36.90;99504.06;5132622;27;20043;-73
2024/03/26 09:05:27;;;;;;;2.45;1.80;;;;;;;21.14;37.15;99515.25;5120559;27;20031;-73
2024/03/26 09:07:52;;;;;;;2.42;1.90;;;;;;;21.18;36.93;99507.66;5123546;27;20050;-74
2024/03/26 09:10:19;;;;;;;2.42;1.80;;;;;;;21.12;37.32;99504.88;5126094;27;20102;-74
2024/03/26 09:12:45;;;;;;;2.28;1.90;;;;;;;21.07;36.96;99503.91;5116056;27;20046;-74
2024/03/26 09:15:11;;;;;;;2.92;1.90;;;;;;;21.11;37.19;99492.66;5119506;27;20046;-74
2024/03/26 09:17:36;;;;;;;2.50;1.67;;;;;;;21.12;37.27;99496.13;5100752;28;20078;-74
2024/03/26 09:20:04;;;;;;;2.95;1.77;;;;;;;21.11;37.20;99495.31;5120869;27;20700;-74
2024/03/26 09:22:29;;;;;;;3.15;1.80;;;;;;;21.06;36.98;99483.78;5119268;27;20043;-74
2024/03/26 09:24:55;;;;;;;2.90;1.95;;;;;;;21.08;37.18;99482.53;5121003;27;20057;-74
2024/03/26 09:27:20;;;;;;;2.20;2.00;;;;;;;21.07;37.26;99480.91;5119156;27;20043;-74
2024/03/26 09:29:46;;;;;;;2.38;1.75;;;;;;;21.09;37.23;99478.03;5123958;27;20046;-73
2024/03/26 09:32:11;;;;;;;2.53;1.88;;;;;;;21.08;37.05;99471.13;5102115;27;20612;-73
2024/03/26 09:34:37;;;;;;;1.70;1.60;;;;;;;21.08;37.00;99465.84;5125776;27;20039;-74
2024/03/26 09:37:02;;;;;;;2.15;1.70;;;;;;;21.20;36.87;99469.38;5107558;27;21327;-74
2024/03/26 09:39:28;;;;;;;2.08;1.83;;;;;;;21.27;36.71;99466.66;5118986;27;20084;-73
2024/03/26 09:41:57;;;;;;;2.13;1.85;;;;;;;21.24;36.74;99459.16;5121818;27;20073;-74
2024/03/26 09:44:25;;;;;;;2.05;1.85;;;;;;;21.27;36.72;99453.44;5125644;27;20062;-73
2024/03/26 09:46:51;;;;;;;2.33;1.90;;;;;;;21.27;36.87;99454.25;5122352;27;21069;-73
2024/03/26 09:49:19;;;;;;;3.08;2.25;;;;;;;21.24;36.91;99452.03;5120039;27;20126;-74
2024/03/26 09:51:46;;;;;;;2.28;1.83;;;;;;;21.24;36.77;99438.81;5121427;27;20035;-74
2024/03/26 09:54:14;;;;;;;2.72;1.80;;;;;;;21.25;36.47;99434.31;5119302;27;20042;-73
2024/03/26 09:56:39;;;;;;;2.13;1.80;;;;;;;21.21;36.97;99427.81;5123026;27;20054;-74
2024/03/26 09:59:05;;;;;;;2.63;1.75;;;;;;;21.18;36.62;99422.94;5126256;27;20691;-73
2024/03/26 10:01:33;;;;;;;3.08;2.00;;;;;;;21.17;36.94;99416.84;5136427;27;20041;-74
2024/03/26 10:03:59;;;;;;;1.90;1.73;;;;;;;21.19;36.93;99416.66;5123951;27;20034;-74
2024/03/26 10:06:25;;;;;;;1.60;1.50;;;;;;;21.11;37.13;99413.25;5127898;27;20642;-74
2024/03/26 10:08:54;;;;;;;3.20;1.83;;;;;;;21.15;36.90;99405.69;5127222;27;20053;-74
2024/03/26 10:11:19;;;;;;;2.58;1.90;;;;;;;21.15;37.01;99408.31;5122709;27;20228;-73
2024/03/26 10:13:45;;;;;;;2.25;1.80;;;;;;;21.12;36.99;99403.47;5125190;27;20635;-71
2024/03/26 10:16:11;;;;;;;3.40;1.98;;;;;;;21.16;36.78;99403.84;5120873;27;20050;-74
2024/03/26 10:18:36;;;;;;;2.63;1.90;;;;;;;21.12;37.27;99399.00;5129041;27;20050;-73
2024/03/26 10:21:05;;;;;;;2.10;1.90;;;;;;;21.18;36.64;99388.53;5124597;27;20031;-74
2024/03/26 10:23:31;;;;;;;2.42;2.08;;;;;;;21.12;36.95;99391.06;5124317;27;20062;-74
2024/03/26 10:26:00;;;;;;;2.00;1.80;;;;;;;21.13;36.66;99387.38;5128280;27;20419;-73
2024/03/26 10:28:25;;;;;;;3.13;1.83;;;;;;;21.11;36.83;99381.50;5125504;27;20034;-74
2024/03/26 10:30:52;;;;;;;2.35;2.00;;;;;;;21.09;36.81;99375.63;5128174;27;20091;-74
2024/03/26 10:33:21;;;;;;;3.13;2.00;;;;;;;21.15;36.83;99367.81;5127005;27;20058;-74
2024/03/26 10:35:52;;;;;;;2.40;1.80;;;;;;;21.19;37.03;99361.06;5128164;27;20055;-74
2024/03/26 10:38:22;;;;;;;2.40;2.20;;;;;;;21.22;37.03;99358.78;5121650;27;20050;-74
2024/03/26 10:41:01;;;;;;;2.10;1.90;;;;;;;21.20;36.72;99352.09;5131093;27;20043;-74
2024/03/26 10:43:27;;;;;;;2.40;1.70;;;;;;;21.21;36.77;99353.69;5126716;27;20115;-74
2024/03/26 10:45:53;;;;;;;3.03;2.13;;;;;;;21.20;36.73;99341.50;5129108;27;20782;-73
2024/03/26 10:48:20;;;;;;;3.28;2.45;;;;;;;21.20;36.98;99341.50;5124398;27;20026;-73
2024/03/26 10:50:47;;;;;;;2.17;2.00;;;;;;;21.24;36.59;99338.19;5131762;27;20038;-73
2024/03/26 10:53:13;;;;;;;3.50;1.90;;;;;;;21.20;36.88;99337.00;5128779;27;20038;-73
2024/03/26 10:55:41;;;;;;;3.60;1.95;;;;;;;21.16;36.73;99327.06;5131816;27;20046;-73
2024/03/26 10:58:07;;;;;;;2.42;2.10;;;;;;;21.19;37.00;99329.28;5131952;27;20035;-73
2024/03/26 11:00:35;;;;;;;3.97;2.20;;;;;;;21.17;36.88;99333.97;5128527;27;20036;-73
2024/03/26 11:03:01;;;;;;;2.22;1.80;;;;;;;21.07;36.67;99311.50;5134633;27;20142;-73
2024/03/26 11:05:30;;;;;;;1.70;1.60;;;;;;;21.11;36.70;99322.47;5132989;27;20088;-73
2024/03/26 11:07:56;;;;;;;3.37;1.90;;;;;;;21.08;36.70;99320.25;5125809;27;20027;-72
2024/03/26 11:10:21;;;;;;;2.28;1.80;;;;;;;21.07;36.99;99313.34;5124866;27;20540;-74
2024/03/26 11:12:51;;;;;;;2.97;1.98;;;;;;;21.05;36.53;99296.91;5130786;27;20083;-74
2024/03/26 11:15:18;;;;;;;2.33;1.52;;;;;;;21.27;36.59;99319.22;5120557;27;20043;-74
2024/03/26 11:18:01;;;;;;;2.03;1.83;;;;;;;21.33;36.49;99320.94;5126614;27;20045;-74
2024/03/26 11:20:29;;;;;;;2.08;1.88;;;;;;;21.47;36.11;99318.91;5127197;27;20068;-74
2024/03/26 11:22:58;;;;;;;2.80;1.92;;;;;;;21.52;36.00;99321.69;5120017;27;20075;-74
2024/03/26 11:25:25;;;;;;;2.20;1.95;;;;;;;21.46;36.34;99321.81;5122288;27;20050;-74